createdAt,value
2019-02-05T00:00:31.676Z,32.1
2019-02-05T00:01:19.102Z,32.3
2019-02-05T00:02:09.149Z,32.6
2019-02-05T00:02:59.192Z,32.9
2019-02-05T00:03:50.054Z,33.1
2019-02-05T00:04:38.257Z,33.3
2019-02-05T00:05:29.636Z,33.1
2019-02-05T00:06:19.846Z,32.3
2019-02-05T00:07:09.476Z,32.2
2019-02-05T00:07:59.816Z,32.1
2019-02-05T00:08:50.436Z,31.9
2019-02-05T00:09:42.484Z,31.8
2019-02-05T00:10:29.241Z,31.6
2019-02-05T00:11:19.481Z,31.6
2019-02-05T00:12:09.638Z,31.5
2019-02-05T00:12:59.976Z,31.4
2019-02-05T00:13:49.483Z,31.3
2019-02-05T00:14:40.336Z,31.1
2019-02-05T00:15:31.020Z,30.1
2019-02-05T00:16:20.496Z,29.4
2019-02-05T00:17:10.240Z,29.1
2019-02-05T00:17:59.866Z,28.8
2019-02-05T00:18:53.865Z,28.6
2019-02-05T00:19:40.365Z,28
2019-02-05T00:20:30.522Z,28.9
2019-02-05T00:21:20.305Z,29.8
2019-02-05T00:22:10.260Z,30.3
2019-02-05T00:23:00.131Z,30.8
2019-02-05T00:23:49.940Z,31.2
2019-02-05T00:24:41.737Z,31.5
2019-02-05T00:25:30.635Z,31.8
2019-02-05T00:26:21.395Z,32.1
2019-02-05T00:27:11.474Z,32.4
2019-02-05T00:28:04.117Z,32.7
2019-02-05T00:28:51.567Z,32.9
2019-02-05T00:29:41.187Z,33.1
2019-02-05T00:30:31.161Z,33.4
2019-02-05T00:31:21.569Z,32.7
2019-02-05T00:32:10.975Z,32.2
2019-02-05T00:33:00.807Z,32.1
2019-02-05T00:33:51.827Z,31.9
2019-02-05T00:34:41.447Z,31.8
2019-02-05T00:35:32.044Z,31.6
2019-02-05T00:36:20.964Z,31.6
2019-02-05T00:37:14.350Z,31.4
2019-02-05T00:38:02.222Z,31.4
2019-02-05T00:38:52.007Z,31.3
2019-02-05T00:39:41.779Z,31.3
2019-02-05T00:40:32.670Z,31.1
2019-02-05T00:41:22.444Z,30.1
2019-02-05T00:42:12.490Z,29.4
2019-02-05T00:43:02.436Z,29
2019-02-05T00:43:52.614Z,28.7
2019-02-05T00:44:42.486Z,28.5
2019-02-05T00:45:32.731Z,28
2019-02-05T00:46:24.018Z,28.9
2019-02-05T00:47:12.359Z,29.8
2019-02-05T00:48:03.043Z,30.3
2019-02-05T00:48:52.673Z,30.8
2019-02-05T00:49:43.298Z,31.2
2019-02-05T00:50:32.931Z,31.6
2019-02-05T00:51:23.120Z,31.9
2019-02-05T00:52:13.918Z,32.1
2019-02-05T00:53:03.003Z,32.4
2019-02-05T00:53:53.897Z,32.7
2019-02-05T00:54:43.247Z,32.9
2019-02-05T00:55:35.806Z,33.2
2019-02-05T00:56:25.703Z,33.4
2019-02-05T00:57:13.833Z,32.6
2019-02-05T00:58:03.373Z,32.3
2019-02-05T00:58:53.940Z,32.1
2019-02-05T00:59:43.500Z,31.9
2019-02-05T01:00:33.886Z,31.8
2019-02-05T01:01:24.388Z,31.7
2019-02-05T01:02:13.650Z,31.6
2019-02-05T01:03:04.480Z,31.5
2019-02-05T01:03:53.964Z,31.4
2019-02-05T01:04:47.365Z,31.3
2019-02-05T01:05:33.887Z,31.3
2019-02-05T01:06:24.469Z,31.2
2019-02-05T01:07:14.230Z,30.3
2019-02-05T01:08:04.890Z,29.6
2019-02-05T01:08:54.665Z,29.1
2019-02-05T01:09:43.872Z,28.8
2019-02-05T01:10:35.764Z,28.6
2019-02-05T01:11:24.942Z,28.1
2019-02-05T01:12:14.330Z,28.7
2019-02-05T01:13:03.506Z,29.7
2019-02-05T01:13:56.985Z,30.3
2019-02-05T01:14:44.322Z,30.8
2019-02-05T01:15:33.868Z,31.2
2019-02-05T01:16:25.037Z,31.5
2019-02-05T01:17:14.169Z,31.9
2019-02-05T01:18:04.778Z,32.1
2019-02-05T01:18:55.344Z,32.4
2019-02-05T01:19:45.914Z,32.7
2019-02-05T01:20:35.458Z,32.9
2019-02-05T01:21:24.986Z,33.1
2019-02-05T01:22:15.604Z,33.3
2019-02-05T01:23:07.664Z,32.8
2019-02-05T01:23:55.146Z,32.3
2019-02-05T01:24:45.766Z,32.1
2019-02-05T01:25:35.969Z,32
2019-02-05T01:26:38.799Z,31.9
2019-02-05T01:27:14.896Z,31.7
2019-02-05T01:28:05.753Z,31.6
2019-02-05T01:28:57.169Z,31.5
2019-02-05T01:29:45.888Z,31.5
2019-02-05T01:30:36.306Z,31.4
2019-02-05T01:31:26.511Z,31.4
2019-02-05T01:32:18.738Z,31.3
2019-02-05T01:33:06.193Z,30.4
2019-02-05T01:33:55.879Z,29.8
2019-02-05T01:34:46.477Z,29.3
2019-02-05T01:35:35.975Z,28.9
2019-02-05T01:36:25.530Z,28.6
2019-02-05T01:37:16.468Z,28.3
2019-02-05T01:38:06.933Z,28.4
2019-02-05T01:38:55.978Z,29.5
2019-02-05T01:39:46.060Z,30.1
2019-02-05T01:40:36.618Z,30.7
2019-02-05T01:41:29.517Z,31.1
2019-02-05T01:42:15.898Z,31.4
2019-02-05T01:43:06.335Z,31.8
2019-02-05T01:43:55.790Z,32.1
2019-02-05T01:44:46.483Z,32.3
2019-02-05T01:45:36.679Z,32.6
2019-02-05T01:46:27.312Z,32.9
2019-02-05T01:47:17.172Z,33.1
2019-02-05T01:48:05.849Z,33.3
2019-02-05T01:48:57.508Z,33.3
2019-02-05T01:49:47.015Z,32.3
2019-02-05T01:50:39.255Z,32.2
2019-02-05T01:51:27.352Z,32.1
2019-02-05T01:52:16.695Z,31.9
2019-02-05T01:53:06.720Z,31.8
2019-02-05T01:53:57.546Z,31.7
2019-02-05T01:54:46.794Z,31.6
2019-02-05T01:55:37.752Z,31.5
2019-02-05T01:56:28.029Z,31.4
2019-02-05T01:57:17.764Z,31.4
2019-02-05T01:58:07.584Z,31.4
2019-02-05T01:58:57.375Z,30.7
2019-02-05T01:59:50.574Z,29.9
2019-02-05T02:00:38.654Z,29.3
2019-02-05T02:01:28.144Z,28.9
2019-02-05T02:02:17.057Z,28.7
2019-02-05T02:03:08.509Z,28.4
2019-02-05T02:03:58.001Z,28.3
2019-02-05T02:04:48.396Z,29.4
2019-02-05T02:05:39.801Z,30.1
2019-02-05T02:06:27.691Z,30.6
2019-02-05T02:07:17.770Z,31.1
2019-02-05T02:08:08.158Z,31.4
2019-02-05T02:09:00.176Z,31.8
2019-02-05T02:09:48.198Z,32.1
2019-02-05T02:10:38.643Z,32.3
2019-02-05T02:11:28.398Z,32.6
2019-02-05T02:12:19.383Z,32.8
2019-02-05T02:13:08.504Z,33.1
2019-02-05T02:13:59.209Z,33.3
2019-02-05T02:14:50.696Z,32.8
2019-02-05T02:15:39.063Z,32.2
2019-02-05T02:16:29.426Z,32.1
2019-02-05T02:17:19.296Z,31.9
2019-02-05T02:18:10.798Z,31.8
2019-02-05T02:18:57.745Z,31.7
2019-02-05T02:19:49.377Z,31.6
2019-02-05T02:20:39.173Z,31.5
2019-02-05T02:21:28.918Z,31.4
2019-02-05T02:22:19.698Z,31.4
2019-02-05T02:23:09.957Z,31.3
2019-02-05T02:24:02.128Z,31.3
2019-02-05T02:24:50.110Z,30.8
2019-02-05T02:25:40.051Z,29.9
2019-02-05T02:26:29.597Z,29.3
2019-02-05T02:27:21.760Z,28.9
2019-02-05T02:28:09.681Z,28.7
2019-02-05T02:28:59.737Z,28.3
2019-02-05T02:29:50.863Z,28.4
2019-02-05T02:30:39.988Z,29.4
2019-02-05T02:31:29.772Z,30.1
2019-02-05T02:32:20.604Z,30.6
2019-02-05T02:33:13.027Z,31.1
2019-02-05T02:34:00.123Z,31.4
2019-02-05T02:34:50.266Z,31.8
2019-02-05T02:35:40.209Z,32
2019-02-05T02:36:30.678Z,32.3
2019-02-05T02:37:20.699Z,32.6
2019-02-05T02:38:10.014Z,32.8
2019-02-05T02:39:00.692Z,33.1
2019-02-05T02:39:50.266Z,33.3
2019-02-05T02:40:40.355Z,33
2019-02-05T02:41:29.736Z,32.2
2019-02-05T02:42:23.283Z,32.1
2019-02-05T02:43:09.777Z,32
2019-02-05T02:44:01.397Z,31.8
2019-02-05T02:44:49.589Z,31.7
2019-02-05T02:45:40.727Z,31.6
2019-02-05T02:46:30.511Z,31.5
2019-02-05T02:47:21.141Z,31.4
2019-02-05T02:48:11.524Z,31.4
2019-02-05T02:49:01.516Z,31.3
2019-02-05T02:49:51.406Z,31.3
2019-02-05T02:50:42.013Z,30.9
2019-02-05T02:51:33.416Z,30
2019-02-05T02:52:21.816Z,29.4
2019-02-05T02:53:11.050Z,29
2019-02-05T02:54:01.730Z,28.7
2019-02-05T02:54:56.143Z,28.3
2019-02-05T02:55:42.434Z,28.4
2019-02-05T02:56:31.647Z,29.4
2019-02-05T02:57:22.619Z,30
2019-02-05T02:58:15.573Z,30.6
2019-02-05T02:59:02.028Z,31.1
2019-02-05T02:59:51.295Z,31.4
2019-02-05T03:00:44.204Z,31.7
2019-02-05T03:01:32.038Z,32
2019-02-05T03:02:22.086Z,32.3
2019-02-05T03:03:12.529Z,32.5
2019-02-05T03:04:02.876Z,32.8
2019-02-05T03:04:52.103Z,33
2019-02-05T03:08:24.167Z,32.1
2019-02-05T03:09:14.457Z,31.9
2019-02-05T03:10:06.232Z,31.8
2019-02-05T03:10:54.615Z,31.6
2019-02-05T03:11:44.608Z,31.5
2019-02-05T03:12:34.430Z,31.4
2019-02-05T03:13:27.682Z,31.4
2019-02-05T03:14:14.936Z,31.3
2019-02-05T03:15:05.367Z,31.3
2019-02-05T03:15:55.824Z,31.2
2019-02-05T03:16:45.893Z,30.8
2019-02-05T03:17:34.824Z,29.9
2019-02-05T03:18:24.913Z,29.3
2019-02-05T03:19:18.379Z,28.9
2019-02-05T03:20:05.637Z,28.6
2019-02-05T03:20:55.050Z,28.1
2019-02-05T03:21:45.347Z,28.5
2019-02-05T03:22:34.966Z,29.5
2019-02-05T03:23:25.602Z,30.1
2019-02-05T03:24:15.677Z,30.6
2019-02-05T03:25:08.633Z,31.1
2019-02-05T03:25:55.442Z,31.4
2019-02-05T03:26:45.864Z,31.7
2019-02-05T03:27:35.424Z,32
2019-02-05T03:28:25.811Z,32.3
2019-02-05T03:29:15.382Z,32.5
2019-02-05T03:30:05.808Z,32.8
2019-02-05T03:31:00.617Z,32.9
2019-02-05T03:31:46.513Z,33.2
2019-02-05T03:32:36.417Z,33.3
2019-02-05T03:33:27.004Z,32.4
2019-02-05T03:34:16.200Z,32.1
2019-02-05T03:35:07.417Z,32
2019-02-05T03:35:56.648Z,31.9
2019-02-05T03:36:47.097Z,31.8
2019-02-05T03:37:36.036Z,31.6
2019-02-05T03:38:25.939Z,31.6
2019-02-05T03:39:16.400Z,31.4
2019-02-05T03:40:08.882Z,31.4
2019-02-05T03:40:56.569Z,31.3
2019-02-05T03:41:46.833Z,31.3
2019-02-05T03:42:37.530Z,31
2019-02-05T03:43:26.086Z,30.1
2019-02-05T03:44:16.510Z,29.4
2019-02-05T03:45:06.933Z,29
2019-02-05T03:45:59.981Z,28.8
2019-02-05T03:46:46.816Z,28.5
2019-02-05T03:47:36.310Z,28
2019-02-05T03:48:26.902Z,28.9
2019-02-05T03:49:17.122Z,29.8
2019-02-05T03:50:07.768Z,30.3
2019-02-05T03:50:57.565Z,30.8
2019-02-05T03:51:49.524Z,31.2
2019-02-05T03:52:37.637Z,31.5
2019-02-05T03:53:26.788Z,31.8
2019-02-05T03:54:18.002Z,31.6
2019-02-05T03:55:07.720Z,30.4
2019-02-05T03:55:57.799Z,28.8
2019-02-05T03:56:47.809Z,27.7
2019-02-05T03:59:38.637Z,26.9
2019-02-05T03:59:52.246Z,24.4
2019-02-05T04:00:39.770Z,24.5
2019-02-05T04:01:29.881Z,24.8
2019-02-05T04:02:19.961Z,26.3
2019-02-05T04:03:10.314Z,27.6
2019-02-05T04:04:00.311Z,28.6
2019-02-05T04:04:49.795Z,29.3
2019-02-05T04:05:40.936Z,29.9
2019-02-05T04:06:29.923Z,30.5
2019-02-05T04:07:19.961Z,31
2019-02-05T04:08:10.589Z,31.4
2019-02-05T04:09:02.817Z,31.8
2019-02-05T04:09:50.266Z,32.2
2019-02-05T04:10:40.193Z,32.5
2019-02-05T04:11:30.551Z,32.8
2019-02-05T04:12:19.818Z,33
2019-02-05T04:13:10.654Z,33.3
2019-02-05T04:14:00.426Z,33.3
2019-02-05T04:14:51.024Z,32.3
2019-02-05T04:15:41.101Z,32.2
2019-02-05T04:16:30.904Z,32.1
2019-02-05T04:17:20.733Z,31.9
2019-02-05T04:18:13.202Z,31.8
2019-02-05T04:19:00.769Z,31.6
2019-02-05T04:19:50.889Z,31.5
2019-02-05T04:20:41.182Z,31.5
2019-02-05T04:21:30.963Z,31.4
2019-02-05T04:22:21.281Z,31.4
2019-02-05T04:23:10.919Z,31.3
2019-02-05T04:24:02.962Z,31.3
2019-02-05T04:24:51.473Z,30.3
2019-02-05T04:25:41.707Z,29.5
2019-02-05T04:26:31.256Z,29.1
2019-02-05T04:27:23.831Z,28.8
2019-02-05T04:28:10.948Z,28.4
2019-02-05T04:29:02.089Z,28.3
2019-02-05T04:29:51.843Z,29.4
2019-02-05T04:30:41.747Z,30.1
2019-02-05T04:31:32.247Z,30.6
2019-02-05T04:32:22.042Z,31
2019-02-05T04:33:14.481Z,31.4
2019-02-05T04:34:02.184Z,31.8
2019-02-05T04:34:51.922Z,32.1
2019-02-05T04:35:42.500Z,32.3
2019-02-05T04:36:33.011Z,32.6
2019-02-05T04:37:22.063Z,32.9
2019-02-05T04:38:11.953Z,33.1
2019-02-05T04:39:02.344Z,33.3
2019-02-05T04:39:52.523Z,33.1
2019-02-05T04:40:42.914Z,32.3
2019-02-05T04:41:32.960Z,32.1
2019-02-05T04:42:25.590Z,32.1
2019-02-05T04:43:12.235Z,31.9
2019-02-05T04:44:02.283Z,31.8
2019-02-05T04:44:52.785Z,31.6
2019-02-05T04:45:43.250Z,31.4
2019-02-05T04:46:33.493Z,31.3
2019-02-05T04:47:22.564Z,31.2
2019-02-05T04:48:13.492Z,31.1
2019-02-05T04:49:02.881Z,30.9
2019-02-05T04:49:53.220Z,30.1
2019-02-05T04:50:43.012Z,29.4
2019-02-05T04:51:35.808Z,29
2019-02-05T04:52:22.923Z,28.7
2019-02-05T04:53:13.798Z,28.4
2019-02-05T04:54:03.964Z,27.9
2019-02-05T04:54:53.104Z,28.7
2019-02-05T04:55:43.359Z,29.7
2019-02-05T04:56:33.561Z,30.2
2019-02-05T04:57:24.740Z,30.7
2019-02-05T04:58:14.127Z,31.1
2019-02-05T04:59:03.587Z,31.5
2019-02-05T04:59:54.192Z,31.8
2019-02-05T05:00:46.613Z,32.1
2019-02-05T05:01:34.364Z,32.4
2019-02-05T05:02:24.504Z,32.6
2019-02-05T05:03:14.541Z,32.9
2019-02-05T05:04:04.790Z,33.1
2019-02-05T05:04:53.511Z,33.1
2019-02-05T05:05:44.665Z,32.1
2019-02-05T05:06:35.759Z,31.9
2019-02-05T05:07:24.208Z,31.8
2019-02-05T05:08:14.788Z,31.6
2019-02-05T05:09:05.371Z,31.4
2019-02-05T05:09:56.753Z,31.2
2019-02-05T05:10:44.440Z,31.1
2019-02-05T05:11:34.522Z,30.9
2019-02-05T05:12:24.721Z,30.8
2019-02-05T05:13:14.712Z,30.8
2019-02-05T05:14:04.943Z,30.7
2019-02-05T05:14:55.037Z,30.6
2019-02-05T05:15:46.836Z,29.8
2019-02-05T05:16:34.815Z,29.1
2019-02-05T05:17:24.497Z,28.6
2019-02-05T05:18:18.316Z,28.4
2019-02-05T05:19:05.882Z,27.9
2019-02-05T05:19:55.372Z,27.9
2019-02-05T05:20:45.694Z,28.9
2019-02-05T05:21:36.340Z,29.6
2019-02-05T05:22:25.925Z,30.1
2019-02-05T05:23:15.870Z,30.5
2019-02-05T05:24:06.230Z,30.9
2019-02-05T05:24:57.524Z,31.3
2019-02-05T05:25:46.542Z,31.6
2019-02-05T05:26:35.736Z,31.8
2019-02-05T05:27:26.775Z,32.1
2019-02-05T05:28:18.527Z,32.3
2019-02-05T05:29:06.043Z,32.6
2019-02-05T05:29:56.792Z,32.7
2019-02-05T05:30:48.617Z,32.9
2019-02-05T05:31:37.097Z,32.1
2019-02-05T05:32:26.411Z,31.8
2019-02-05T05:33:16.499Z,31.7
2019-02-05T05:34:06.876Z,31.5
2019-02-05T05:34:56.679Z,31.3
2019-02-05T05:35:51.843Z,31.1
2019-02-05T05:36:37.994Z,31
2019-02-05T05:37:26.486Z,30.9
2019-02-05T05:38:17.194Z,30.8
2019-02-05T05:39:06.771Z,30.7
2019-02-05T05:40:01.306Z,30.6
2019-02-05T05:40:47.618Z,30.6
2019-02-05T05:41:37.206Z,29.8
2019-02-05T05:42:27.302Z,29.1
2019-02-05T05:43:16.771Z,28.6
2019-02-05T05:44:10.538Z,28.3
2019-02-05T05:44:57.111Z,28
2019-02-05T05:45:50.342Z,27.6
2019-02-05T05:46:37.236Z,28.7
2019-02-05T05:47:27.715Z,29.4
2019-02-05T05:48:17.867Z,30
2019-02-05T05:49:08.151Z,30.5
2019-02-05T05:49:57.650Z,30.9
2019-02-05T05:50:48.065Z,31.3
2019-02-05T05:51:38.899Z,31.6
2019-02-05T05:52:27.658Z,31.8
2019-02-05T05:53:17.916Z,32.1
2019-02-05T05:54:08.183Z,32.4
2019-02-05T05:55:00.171Z,32.6
2019-02-05T05:55:47.808Z,32.9
2019-02-05T05:56:37.048Z,33.1
2019-02-05T05:57:28.130Z,32.8
2019-02-05T05:58:33.148Z,32.1
2019-02-05T05:59:07.937Z,31.9
2019-02-05T05:59:58.131Z,31.8
2019-02-05T06:00:51.793Z,31.6
2019-02-05T06:01:38.184Z,31.4
2019-02-05T06:02:28.120Z,31.3
2019-02-05T06:03:18.732Z,31.2
2019-02-05T06:04:08.949Z,31.1
2019-02-05T06:06:23.968Z,30.9
2019-02-05T06:07:13.605Z,30.6
2019-02-05T06:08:04.913Z,29.7
2019-02-05T06:08:57.137Z,29.1
2019-02-05T06:09:44.606Z,28.7
2019-02-05T06:10:34.047Z,28.4
2019-02-05T06:11:23.911Z,28
2019-02-05T06:12:13.984Z,28.2
2019-02-05T06:13:05.002Z,29.3
2019-02-05T06:13:55.196Z,29.9
2019-02-05T06:14:45.834Z,30.3
2019-02-05T06:15:38.226Z,30.8
2019-02-05T06:16:25.116Z,31.1
2019-02-05T06:17:14.584Z,31.4
2019-02-05T06:18:09.062Z,31.7
2019-02-05T06:18:55.617Z,32
2019-02-05T06:19:44.545Z,32.3
2019-02-05T06:20:35.214Z,31.7
2019-02-05T06:21:24.368Z,30.6
2019-02-05T06:22:15.363Z,28.9
2019-02-05T06:23:05.886Z,27.9
2019-02-05T06:23:58.873Z,26.9
2019-02-05T06:24:45.547Z,25.7
2019-02-05T06:25:35.254Z,25.2
2019-02-05T06:26:28.311Z,25.3
2019-02-05T06:27:15.348Z,26.3
2019-02-05T06:28:05.971Z,27.4
2019-02-05T06:28:56.306Z,28.4
2019-02-05T06:29:47.003Z,29.3
2019-02-05T06:30:35.601Z,29.9
2019-02-05T06:31:25.943Z,30.4
2019-02-05T06:32:16.324Z,30.9
2019-02-05T06:33:07.508Z,31.3
2019-02-05T06:33:56.350Z,31.7
2019-02-05T06:34:46.191Z,32.1
2019-02-05T06:35:36.260Z,32.4
2019-02-05T06:36:27.089Z,31.7
2019-02-05T06:37:16.884Z,31.5
2019-02-05T06:38:06.613Z,31.4
2019-02-05T06:38:58.753Z,31.3
2019-02-05T06:39:46.877Z,31.1
2019-02-05T06:40:37.560Z,31
2019-02-05T06:41:26.325Z,30.9
2019-02-05T06:42:18.337Z,30.8
2019-02-05T06:43:06.977Z,30.7
2019-02-05T06:43:56.462Z,30.6
2019-02-05T06:44:48.052Z,30.6
2019-02-05T06:45:36.560Z,30.3
2019-02-05T06:46:27.150Z,29.3
2019-02-05T06:47:16.986Z,28.8
2019-02-05T06:48:10.172Z,28.4
2019-02-05T06:48:57.319Z,28.1
2019-02-05T06:49:47.480Z,27.9
2019-02-05T06:50:37.764Z,27.8
2019-02-05T06:51:27.101Z,27.6
2019-02-05T06:52:17.949Z,27.6
2019-02-05T06:53:07.772Z,27.4
2019-02-05T06:53:59.349Z,27.4
2019-02-05T06:54:47.551Z,27.3
2019-02-05T06:55:37.614Z,27.3
2019-02-05T06:56:27.962Z,26.8
2019-02-05T06:57:18.402Z,27.4
2019-02-05T06:58:07.834Z,28.5
2019-02-05T06:58:57.226Z,29.3
2019-02-05T06:59:49.056Z,29.8
2019-02-05T07:00:36.784Z,30.3
2019-02-05T07:01:28.284Z,30.6
2019-02-05T07:02:17.449Z,30.8
2019-02-05T07:03:11.179Z,29.9
2019-02-05T07:03:58.669Z,29.4
2019-02-05T07:06:23.571Z,28.8
2019-02-05T07:07:13.600Z,28.7
2019-02-05T07:08:03.718Z,28.5
2019-02-05T07:08:56.150Z,28.4
2019-02-05T07:09:43.303Z,28.4
2019-02-05T07:10:34.500Z,28.3
2019-02-05T07:11:24.594Z,28.3
2019-02-05T07:12:14.271Z,27.8
2019-02-05T07:13:04.426Z,27.4
2019-02-05T07:13:54.409Z,27.1
2019-02-05T07:14:46.745Z,26.9
2019-02-05T07:15:34.641Z,26.8
2019-02-05T07:16:24.845Z,26.6
2019-02-05T07:17:14.307Z,26.6
2019-02-05T07:18:09.282Z,26.4
2019-02-05T07:18:54.437Z,26.4
2019-02-05T07:19:45.070Z,26.3
2019-02-05T07:20:35.718Z,26.3
2019-02-05T07:21:24.895Z,26
2019-02-05T07:22:15.642Z,26.6
2019-02-05T07:23:05.469Z,27.8
2019-02-05T07:23:57.490Z,28.6
2019-02-05T07:24:44.340Z,29.2
2019-02-05T07:25:35.487Z,29.6
2019-02-05T07:26:25.238Z,30.1
2019-02-05T07:27:15.322Z,30.5
2019-02-05T07:28:04.604Z,30.7
2019-02-05T07:29:08.812Z,29.9
2019-02-05T07:29:47.789Z,29.9
2019-02-05T07:30:35.607Z,29.9
2019-02-05T07:31:25.614Z,29.8
2019-02-05T07:32:15.752Z,29.8
2019-02-05T07:33:05.834Z,29.6
2019-02-05T07:33:55.552Z,29.6
2019-02-05T07:34:46.147Z,29.5
2019-02-05T07:35:37.579Z,29.4
2019-02-05T07:36:25.867Z,29.4
2019-02-05T07:37:16.985Z,29.3
2019-02-05T07:38:06.242Z,28.6
2019-02-05T07:38:55.211Z,27.9
2019-02-05T07:39:45.486Z,27.5
2019-02-05T07:40:36.204Z,27.2
2019-02-05T07:41:27.741Z,26.9
2019-02-05T07:42:15.716Z,26.8
2019-02-05T07:43:05.327Z,26.7
2019-02-05T07:43:55.641Z,26.6
2019-02-05T07:44:47.703Z,26.5
2019-02-05T07:45:35.541Z,26.2
2019-02-05T07:46:26.688Z,27.1
2019-02-05T07:47:18.021Z,28.1
2019-02-05T07:48:06.321Z,28.8
2019-02-05T07:48:56.638Z,29.3
2019-02-05T07:49:47.718Z,29.8
2019-02-05T07:50:39.158Z,30.2
2019-02-05T07:51:27.501Z,30.6
2019-02-05T07:52:17.206Z,30.9
2019-02-05T07:53:06.980Z,30.1
2019-02-05T07:53:56.731Z,30.1
2019-02-05T07:54:47.337Z,30
2019-02-05T07:55:37.074Z,29.9
2019-02-05T07:56:30.315Z,29.9
2019-02-05T07:57:17.710Z,29.7
2019-02-05T07:58:08.350Z,29.6
2019-02-05T07:59:10.670Z,29.6
2019-02-05T07:59:52.138Z,29.4
2019-02-05T08:00:38.291Z,29.4
2019-02-05T08:01:27.845Z,29.4
2019-02-05T08:02:20.821Z,29.3
2019-02-05T08:03:08.210Z,28.5
2019-02-05T08:03:58.043Z,27.9
2019-02-05T08:04:48.377Z,27.4
2019-02-05T08:05:38.587Z,27.2
2019-02-05T08:06:28.150Z,26.9
2019-02-05T08:07:18.449Z,26.8
2019-02-05T08:08:23.313Z,26.7
2019-02-05T08:08:58.532Z,26.6
2019-02-05T08:09:48.089Z,26.3
2019-02-05T08:10:38.279Z,26.8
2019-02-05T08:11:29.217Z,27.8
2019-02-05T08:12:18.609Z,28.7
2019-02-05T08:13:08.991Z,29.4
2019-02-05T08:13:59.567Z,30
2019-02-05T08:14:48.519Z,30.4
2019-02-05T08:15:38.522Z,30.7
2019-02-05T08:16:29.309Z,30.9
2019-02-05T08:17:19.712Z,30.1
2019-02-05T08:18:09.209Z,29.8
2019-02-05T08:18:59.497Z,29.6
2019-02-05T08:19:52.097Z,29.4
2019-02-05T08:20:39.966Z,29.3
2019-02-05T08:21:29.552Z,29.3
2019-02-05T08:22:19.579Z,29.1
2019-02-05T08:23:09.319Z,29.1
2019-02-05T08:23:59.864Z,29
2019-02-05T08:24:49.873Z,28.9
2019-02-05T08:25:41.986Z,28.8
2019-02-05T08:26:30.023Z,28.6
2019-02-05T08:27:19.339Z,27.9
2019-02-05T08:28:10.364Z,27.4
2019-02-05T08:29:01.248Z,27.1
2019-02-05T08:29:49.161Z,26.9
2019-02-05T08:30:39.558Z,26.7
2019-02-05T08:31:30.496Z,26.6
2019-02-05T08:32:20.524Z,26.4
2019-02-05T08:33:09.528Z,26.4
2019-02-05T08:33:59.786Z,26.3
2019-02-05T08:34:53.472Z,26
2019-02-05T08:35:39.911Z,26.5
2019-02-05T08:36:30.447Z,27.6
2019-02-05T08:37:21.415Z,28.5
2019-02-05T08:38:10.345Z,29.4
2019-02-05T08:39:00.885Z,29.9
2019-02-05T08:39:49.114Z,30.3
2019-02-05T08:40:43.372Z,30.6
2019-02-05T08:41:29.245Z,30.9
2019-02-05T08:42:20.096Z,30.4
2019-02-05T08:43:10.134Z,29.9
2019-02-05T08:44:02.022Z,29.7
2019-02-05T08:44:50.742Z,29.5
2019-02-05T08:45:41.024Z,29.4
2019-02-05T08:46:32.245Z,29.3
2019-02-05T08:47:21.165Z,29.1
2019-02-05T08:48:11.244Z,29.1
2019-02-05T08:49:01.868Z,29
2019-02-05T08:49:53.027Z,28.9
2019-02-05T08:50:41.359Z,28.9
2019-02-05T08:51:30.403Z,28.8
2019-02-05T08:52:21.299Z,28.8
2019-02-05T08:53:10.904Z,28.7
2019-02-05T08:54:01.407Z,28.6
2019-02-05T08:54:51.490Z,28.5
2019-02-05T08:55:44.451Z,28.5
2019-02-05T08:56:31.402Z,28.4
2019-02-05T08:57:21.917Z,28.4
2019-02-05T08:58:12.091Z,28.3
2019-02-05T08:59:01.976Z,28.2
2019-02-05T08:59:52.474Z,28.1
2019-02-05T09:00:43.143Z,28.1
2019-02-05T09:01:35.217Z,27.7
2019-02-05T09:02:21.429Z,27.6
2019-02-05T09:03:12.891Z,28.3
2019-02-05T09:04:02.417Z,29.1
2019-02-05T09:04:52.439Z,29.8
2019-02-05T09:05:43.031Z,30.3
2019-02-05T09:06:36.314Z,30.5
2019-02-05T09:07:24.071Z,30.8
2019-02-05T09:08:12.838Z,31.1
2019-02-05T09:09:02.734Z,30.9
2019-02-05T09:09:52.811Z,30.3
2019-02-05T09:10:43.744Z,30
2019-02-05T09:11:31.923Z,29.9
2019-02-05T09:12:25.803Z,29.8
2019-02-05T09:13:13.050Z,29.6
2019-02-05T09:14:17.330Z,29.5
2019-02-05T09:14:52.415Z,29.4
2019-02-05T09:15:42.783Z,29.3
2019-02-05T09:16:35.808Z,29.3
2019-02-05T09:17:25.878Z,29.2
2019-02-05T09:18:12.105Z,29.1
2019-02-05T09:19:04.054Z,29.1
2019-02-05T09:19:52.952Z,29
2019-02-05T09:20:42.737Z,28.9
2019-02-05T09:21:33.560Z,28.9
2019-02-05T09:22:25.620Z,28.8
2019-02-05T09:23:17.117Z,28.7
2019-02-05T09:24:03.765Z,28.6
2019-02-05T09:24:53.844Z,28.6
2019-02-05T09:25:48.539Z,28.5
2019-02-05T09:26:34.183Z,28.4
2019-02-05T09:27:24.882Z,28.3
2019-02-05T09:28:14.640Z,28.3
2019-02-05T09:29:04.622Z,27.5
2019-02-05T09:29:54.396Z,27.9
2019-02-05T09:30:45.071Z,28.7
2019-02-05T09:31:37.081Z,29.4
2019-02-05T09:32:24.574Z,30.1
2019-02-05T09:33:14.509Z,30.4
2019-02-05T09:34:04.259Z,30.7
2019-02-05T09:34:54.852Z,30.9
2019-02-05T09:35:44.705Z,31.3
2019-02-05T09:36:33.923Z,30.9
2019-02-05T09:37:26.157Z,30.3
2019-02-05T09:39:02.334Z,29.9
2019-02-05T09:39:55.179Z,29.8
2019-02-05T09:40:44.606Z,29.6
2019-02-05T09:41:34.546Z,29.6
2019-02-05T09:42:24.361Z,29.4
2019-02-05T09:43:16.806Z,29.4
2019-02-05T09:44:05.141Z,29.3
2019-02-05T09:44:55.863Z,29.2
2019-02-05T09:45:45.399Z,29.1
2019-02-05T09:46:37.781Z,29.1
2019-02-05T09:47:25.971Z,29
2019-02-05T09:48:15.878Z,28.9
2019-02-05T09:49:19.974Z,28.9
2019-02-05T09:49:55.803Z,28.8
2019-02-05T09:50:53.139Z,28.8
2019-02-05T09:51:36.483Z,28.6
2019-02-05T09:52:29.062Z,28.6
2019-02-05T09:53:16.138Z,28.5
2019-02-05T09:54:06.132Z,28.4
2019-02-05T09:54:55.838Z,28.3
2019-02-05T09:55:46.531Z,28.3
2019-02-05T09:56:36.045Z,27.5
2019-02-05T09:57:26.493Z,27.9
2019-02-05T09:58:17.197Z,28.8
2019-02-05T09:59:06.716Z,29.5
2019-02-05T09:59:55.730Z,30.1
2019-02-05T10:00:46.779Z,30.4
2019-02-05T10:01:36.450Z,30.8
2019-02-05T10:02:27.477Z,31
2019-02-05T10:03:17.152Z,31.3
2019-02-05T10:04:07.192Z,30.9
2019-02-05T10:04:56.902Z,30.3
2019-02-05T10:07:39.357Z,29.9
2019-02-05T10:08:17.113Z,29.7
2019-02-05T10:09:20.224Z,29.6
2019-02-05T10:10:12.597Z,29.4
2019-02-05T10:10:47.889Z,29.4
2019-02-05T10:12:07.204Z,29.3
2019-02-05T10:12:34.650Z,29.2
2019-02-05T10:14:10.737Z,29.1
2019-02-05T10:14:54.214Z,29.1
2019-02-05T10:15:42.011Z,29
2019-02-05T10:16:10.581Z,28.9
2019-02-05T10:17:13.765Z,28.9
2019-02-05T10:18:36.884Z,28.8
2019-02-05T10:18:53.539Z,28.7
2019-02-05T10:20:11.349Z,28.7
2019-02-05T10:20:47.050Z,28.6
2019-02-05T10:23:02.661Z,28.3
2019-02-05T10:23:36.953Z,27.9
2019-02-05T10:24:27.354Z,27.6
2019-02-05T10:25:30.603Z,28.7
2019-02-05T10:26:29.225Z,29.7
2019-02-05T10:27:00.381Z,30.2
2019-02-05T10:27:46.211Z,30.3
2019-02-05T10:28:36.023Z,30.6
2019-02-05T10:29:29.213Z,30.9
2019-02-05T10:30:14.476Z,31.3
2019-02-05T10:31:05.603Z,31.5
2019-02-05T10:32:11.458Z,30.7
2019-02-05T10:32:46.583Z,30.4
2019-02-05T10:33:36.730Z,30.4
2019-02-05T10:34:39.020Z,30.3
2019-02-05T10:35:18.470Z,30.1
2019-02-05T10:36:09.830Z,30
2019-02-05T10:36:56.323Z,29.9
2019-02-05T10:38:01.652Z,29.9
2019-02-05T10:38:37.247Z,29.8
2019-02-05T10:39:27.502Z,29.7
2019-02-05T10:40:16.883Z,29.6
2019-02-05T10:41:07.130Z,29.6
2019-02-05T10:41:57.105Z,29.5
2019-02-05T10:42:49.805Z,29.4
2019-02-05T10:43:37.123Z,29.4
2019-02-05T10:44:29.225Z,29.3
2019-02-05T10:45:49.513Z,29.3
2019-02-05T10:46:06.616Z,29.1
2019-02-05T10:46:56.557Z,29.1
2019-02-05T10:47:46.929Z,29
2019-02-05T10:48:37.630Z,28.9
2019-02-05T10:49:28.147Z,28.8
2019-02-05T10:50:20.859Z,28.8
2019-02-05T10:51:06.834Z,28.4
2019-02-05T10:51:56.159Z,27.9
2019-02-05T10:52:47.231Z,28.6
2019-02-05T10:53:37.304Z,29.4
2019-02-05T10:54:27.304Z,30.1
2019-02-05T10:55:17.417Z,30.5
2019-02-05T10:56:09.219Z,30.8
2019-02-05T10:56:57.629Z,31.1
2019-02-05T10:57:48.066Z,31.4
2019-02-05T10:58:37.106Z,31.6
2019-02-05T10:59:29.551Z,30.7
2019-02-05T11:01:07.808Z,30.4
2019-02-05T11:01:59.198Z,30.4
2019-02-05T11:02:49.310Z,30.3
2019-02-05T11:03:38.209Z,30.1
2019-02-05T11:04:28.761Z,30.1
2019-02-05T11:05:20.611Z,30
2019-02-05T11:06:07.533Z,29.9
2019-02-05T11:06:58.491Z,29.9
2019-02-05T11:07:48.701Z,29.8
2019-02-05T11:08:53.723Z,29.7
2019-02-05T11:09:28.328Z,29.6
2019-02-05T11:10:18.684Z,29.6
2019-02-05T11:11:11.426Z,29.5
2019-02-05T11:11:58.895Z,29.4
2019-02-05T11:12:48.590Z,29.4
2019-02-05T11:13:38.920Z,29.3
2019-02-05T11:14:29.178Z,29.2
2019-02-05T11:15:19.842Z,29.1
2019-02-05T11:16:10.023Z,29
2019-02-05T11:16:59.998Z,28.9
2019-02-05T11:17:49.170Z,28.8
2019-02-05T11:18:39.745Z,28.4
2019-02-05T11:19:29.397Z,28.1
2019-02-05T11:20:21.722Z,29
2019-02-05T11:21:12.408Z,29.9